Time;durP1;ratioP1;P1;durP2;ratioP2;P2;SDS_P1;SDS_P2;PMS_P1;PMS_P2;Temp;Humidity;BMP_temperature;BMP_pressure;BME280_temperature;BME280_humidity;BME280_pressure;Samples;Min_cycle;Max_cycle;Signal;HPM_P1;HPM_P2
2023/07/08 00:01:42;;;;;;;;;10.00;10.00;;;;;23.38;47.03;101502.61;110185;1265;22125;-40
2023/07/08 00:04:09;;;;;;;;;12.50;12.00;;;;;23.43;47.02;101501.16;110202;1249;22658;-42
2023/07/08 00:06:36;;;;;;;;;13.00;13.00;;;;;23.41;46.81;101501.23;110194;1256;19845;-41
2023/07/08 00:09:04;;;;;;;;;12.00;11.00;;;;;23.42;47.00;101503.79;110184;1265;22161;-40
2023/07/08 00:11:31;;;;;;;;;78.00;61.50;;;;;23.43;46.92;101503.00;110202;1250;19927;-42
2023/07/08 00:13:59;;;;;;;;;34.00;31.00;;;;;23.44;47.01;101507.27;110159;1250;20285;-41
2023/07/08 00:16:26;;;;;;;;;24.00;23.00;;;;;23.41;47.09;101503.92;110249;1256;22086;-41
2023/07/08 00:18:53;;;;;;;;;23.00;22.00;;;;;23.38;47.10;101503.37;110244;1264;18569;-40
2023/07/08 00:21:21;;;;;;;;;17.00;17.00;;;;;23.41;47.00;101499.38;110186;1265;18714;-40
2023/07/08 00:23:48;;;;;;;;;17.00;17.00;;;;;23.39;47.22;101500.90;110207;1250;20746;-41
2023/07/08 00:26:16;;;;;;;;;17.00;15.00;;;;;23.26;47.26;101495.05;110198;1249;22236;-41
2023/07/08 00:28:43;;;;;;;;;15.00;15.00;;;;;22.81;48.42;101498.54;110227;1264;18716;-41
2023/07/08 00:31:11;;;;;;;;;15.67;15.33;;;;;22.70;48.91;101493.41;110184;1264;19457;-42
2023/07/08 00:33:38;;;;;;;;;16.00;16.00;;;;;22.65;48.87;101488.48;110249;1250;18719;-41
2023/07/08 00:36:05;;;;;;;;;18.00;16.00;;;;;22.60;49.11;101489.48;110185;1264;18690;-40
2023/07/08 00:38:34;;;;;;;;;14.00;14.00;;;;;22.46;49.51;101491.50;110204;1261;19330;-41
2023/07/08 00:41:01;;;;;;;;;14.00;14.00;;;;;22.44;49.68;101491.02;110177;1248;21474;-41
2023/07/08 00:43:29;;;;;;;;;18.50;15.50;;;;;22.45;49.68;101493.27;110225;1264;18745;-41
2023/07/08 00:45:56;;;;;;;;;21.00;21.00;;;;;22.35;49.88;101493.12;110172;1257;20619;-41
2023/07/08 00:48:23;;;;;;;;;39.00;36.00;;;;;22.37;50.15;101493.78;110205;1256;23051;-40
2023/07/08 00:50:51;;;;;;;;;26.00;23.00;;;;;22.32;50.32;101494.55;110189;1256;21703;-40
2023/07/08 00:53:18;;;;;;;;;22.00;21.00;;;;;22.37;50.10;101491.77;110191;1264;19243;-41
2023/07/08 00:55:46;;;;;;;;;18.00;16.00;;;;;22.37;50.16;101490.98;110243;1248;20142;-42
2023/07/08 00:58:13;;;;;;;;;17.50;16.00;;;;;22.35;50.06;101488.70;110178;1250;20114;-41
2023/07/08 01:00:40;;;;;;;;;18.00;16.00;;;;;22.32;50.17;101491.04;110178;1264;19481;-44
2023/07/08 01:03:08;;;;;;;;;19.00;18.33;;;;;22.31;50.11;101486.67;110219;1264;18590;-42
2023/07/08 01:05:38;;;;;;;;;15.50;15.00;;;;;22.23;50.38;101482.02;110166;1249;21617;-41
2023/07/08 01:08:05;;;;;;;;;16.00;16.00;;;;;22.22;50.49;101480.76;110180;1256;21080;-42
2023/07/08 01:10:33;;;;;;;;;19.00;16.00;;;;;22.21;50.46;101481.23;110198;1264;18567;-40
2023/07/08 01:13:00;;;;;;;;;15.50;15.00;;;;;22.20;50.35;101480.42;110219;1256;20023;-40
2023/07/08 01:15:28;;;;;;;;;15.00;15.00;;;;;22.13;50.65;101481.48;110202;1249;20847;-41
2023/07/08 01:17:55;;;;;;;;;14.50;13.00;;;;;22.16;50.63;101477.54;110214;1265;18599;-41
2023/07/08 01:20:23;;;;;;;;;15.00;15.00;;;;;22.17;50.51;101474.33;110232;1264;18634;-42
2023/07/08 01:22:50;;;;;;;;;17.50;15.00;;;;;22.01;50.96;101472.05;110184;1250;20829;-41
2023/07/08 01:25:18;;;;;;;;;15.00;14.00;;;;;21.91;51.34;101471.89;110177;1250;20190;-41
2023/07/08 01:27:45;;;;;;;;;;;;;;;21.86;51.27;101472.91;110199;1249;20598;-41
2023/07/08 01:30:12;;;;;;;;;15.00;15.00;;;;;21.84;51.41;101473.58;110226;1250;20808;-40
2023/07/08 01:32:40;;;;;;;;;15.00;14.00;;;;;21.90;51.41;101474.69;110199;1264;18617;-41
2023/07/08 01:35:07;;;;;;;;;15.00;15.00;;;;;21.91;51.35;101475.21;110186;1257;20046;-42
2023/07/08 01:37:35;;;;;;;;;23.50;21.00;;;;;21.87;51.54;101472.67;110172;1250;20946;-41
2023/07/08 01:40:03;;;;;;;;;18.00;18.00;;;;;21.91;51.48;101477.77;110180;1264;18895;-41
2023/07/08 01:42:31;;;;;;;;;18.00;17.00;;;;;21.87;51.70;101473.38;110203;1256;24252;-41
2023/07/08 01:44:58;;;;;;;;;16.00;15.00;;;;;21.83;51.47;101467.87;110213;1257;20653;-41
2023/07/08 01:47:25;;;;;;;;;15.00;15.00;;;;;21.83;51.63;101465.42;110202;1250;19952;-41
2023/07/08 01:49:53;;;;;;;;;18.00;17.50;;;;;21.96;51.31;101466.75;110199;1248;20116;-41
2023/07/08 01:52:20;;;;;;;;;31.50;27.50;;;;;21.92;51.45;101465.62;110211;1250;20789;-41
2023/07/08 01:54:48;;;;;;;;;23.00;19.50;;;;;21.79;51.70;101469.02;110204;1249;19692;-40
2023/07/08 01:57:16;;;;;;;;;19.00;18.00;;;;;21.72;51.95;101471.39;110243;1249;20144;-40
2023/07/08 01:59:43;;;;;;;;;17.00;17.00;;;;;21.81;51.90;101469.83;110204;1251;20820;-41
2023/07/08 02:02:11;;;;;;;;;17.00;17.00;;;;;21.98;51.57;101468.90;110180;1250;19942;-40
2023/07/08 02:04:38;;;;;;;;;17.00;15.00;;;;;22.05;51.43;101470.02;110203;1250;20086;-41
2023/07/08 02:07:06;;;;;;;;;15.00;14.00;;;;;22.01;51.52;101469.88;110189;1250;20703;-41
2023/07/08 02:09:33;;;;;;;;;17.00;17.00;;;;;21.88;51.73;101467.64;110232;1264;18842;-41
2023/07/08 02:12:01;;;;;;;;;20.50;18.00;;;;;21.66;52.34;101473.11;110189;1256;19976;-41
2023/07/08 02:14:28;;;;;;;;;18.00;17.00;;;;;21.56;52.59;101478.02;110205;1264;20910;-42
2023/07/08 02:16:55;;;;;;;;;17.00;17.00;;;;;21.52;52.67;101480.29;110182;1256;18599;-42
2023/07/08 02:19:23;;;;;;;;;15.00;15.00;;;;;21.53;52.77;101479.76;110230;1250;20129;-42
2023/07/08 02:21:51;;;;;;;;;17.00;16.00;;;;;21.50;52.77;101481.38;110196;1256;21939;-42
2023/07/08 02:24:19;;;;;;;;;17.00;17.00;;;;;21.51;52.65;101479.86;110214;1249;20076;-41
2023/07/08 02:26:47;;;;;;;;;20.50;20.00;;;;;21.49;52.95;101485.58;110175;1250;20120;-41
2023/07/08 02:29:14;;;;;;;;;17.00;17.00;;;;;21.44;53.18;101486.58;110248;1264;19330;-42
2023/07/08 02:31:42;;;;;;;;;18.50;17.50;;;;;21.48;52.96;101488.66;110210;1250;20068;-42
2023/07/08 02:34:09;;;;;;;;;18.50;16.00;;;;;21.41;53.25;101493.13;110192;1249;18574;-41
2023/07/08 02:36:38;;;;;;;;;21.00;18.00;;;;;21.40;53.73;101487.44;110202;1265;22209;-43
2023/07/08 02:39:06;;;;;;;;;20.00;18.00;;;;;21.40;53.82;101493.20;110161;1264;19955;-41
2023/07/08 02:41:34;;;;;;;;;18.00;17.00;;;;;21.39;54.15;101486.64;110182;1264;18850;-41
2023/07/08 02:44:01;;;;;;;;;21.00;21.00;;;;;21.39;54.20;101488.89;110218;1257;21645;-42
2023/07/08 02:46:28;;;;;;;;;16.00;15.00;;;;;21.34;54.46;101488.90;110255;1264;22477;-42
2023/07/08 02:48:56;;;;;;;;;31.50;30.50;;;;;21.40;54.47;101489.04;110214;1250;20392;-41
2023/07/08 02:51:23;;;;;;;;;24.00;23.00;;;;;21.40;54.21;101494.16;110242;1250;20760;-45
2023/07/08 02:53:51;;;;;;;;;29.33;27.33;;;;;21.37;54.41;101494.05;110185;1250;18602;-42
2023/07/08 02:56:18;;;;;;;;;28.00;26.33;;;;;21.33;54.24;101491.63;110185;1250;18903;-41
2023/07/08 02:58:45;;;;;;;;;24.00;23.00;;;;;21.31;54.34;101486.18;110190;1256;23864;-42
2023/07/08 03:01:17;;;;;;;;;31.50;28.00;;;;;21.25;54.78;101480.91;110188;1248;20067;-40
2023/07/08 03:03:44;;;;;;;;;33.50;30.50;;;;;21.25;54.67;101482.77;110184;1264;18696;-42
2023/07/08 03:06:12;;;;;;;;;36.50;33.00;;;;;21.28;54.89;101487.41;110168;1250;20692;-41
2023/07/08 03:08:39;;;;;;;;;28.00;26.00;;;;;21.25;55.14;101485.69;110108;1250;20307;-42
2023/07/08 03:11:07;;;;;;;;;27.00;24.00;;;;;21.28;55.05;101488.46;110174;1265;20104;-41
2023/07/08 03:13:34;;;;;;;;;23.50;20.50;;;;;21.25;55.14;101490.90;110172;1250;20742;-41
2023/07/08 03:16:02;;;;;;;;;22.00;21.00;;;;;21.26;55.16;101489.55;110167;1256;18641;-41
2023/07/08 03:18:29;;;;;;;;;23.67;21.67;;;;;21.27;55.01;101488.73;110155;1264;18708;-41
2023/07/08 03:20:57;;;;;;;;;23.00;20.00;;;;;21.21;55.00;101487.91;110186;1249;22211;-41
2023/07/08 03:23:24;;;;;;;;;27.00;24.00;;;;;21.20;54.97;101488.41;110162;1250;20068;-41
2023/07/08 03:25:52;;;;;;;;;24.00;23.00;;;;;21.15;55.43;101489.61;110166;1250;18742;-43
2023/07/08 03:28:19;;;;;;;;;23.00;21.00;;;;;21.19;54.98;101488.62;110231;1264;19527;-41
2023/07/08 03:30:47;;;;;;;;;23.00;23.00;;;;;21.16;55.20;101487.36;110221;1249;22195;-41
2023/07/08 03:33:14;;;;;;;;;26.00;26.00;;;;;21.16;55.12;101487.70;110191;1251;20323;-41
2023/07/08 03:35:41;;;;;;;;;23.00;21.00;;;;;21.08;54.98;101491.41;110198;1264;21929;-41
2023/07/08 03:38:09;;;;;;;;;21.00;20.00;;;;;21.12;54.79;101494.86;110201;1265;18571;-41
2023/07/08 03:40:36;;;;;;;;;21.00;18.67;;;;;21.09;55.02;101494.58;110145;1250;20198;-41
2023/07/08 03:43:04;;;;;;;;;22.50;22.50;;;;;21.08;55.13;101494.69;110123;1250;20783;-41
2023/07/08 03:45:31;;;;;;;;;34.50;31.50;;;;;21.10;55.17;101490.52;110144;1250;18808;-43
2023/07/08 03:47:59;;;;;;;;;62.50;51.00;;;;;21.11;55.35;101488.66;110254;1249;20058;-42
2023/07/08 03:50:26;;;;;;;;;33.00;31.00;;;;;21.10;55.65;101487.10;110200;1264;19713;-41
2023/07/08 03:52:53;;;;;;;;;27.00;26.50;;;;;21.06;55.56;101486.16;110199;1264;18745;-41
2023/07/08 03:55:21;;;;;;;;;27.67;26.67;;;;;21.00;55.57;101487.20;110261;1264;22683;-41
2023/07/08 03:57:48;;;;;;;;;29.00;26.00;;;;;20.98;55.68;101488.34;110250;1250;20783;-42
2023/07/08 04:00:16;;;;;;;;;26.00;26.00;;;;;21.00;55.78;101490.48;110250;1265;22629;-42
2023/07/08 04:02:43;;;;;;;;;23.00;23.00;;;;;21.02;55.94;101492.23;110204;1264;20903;-41
2023/07/08 04:05:11;;;;;;;;;23.50;21.00;;;;;21.02;55.83;101493.00;110177;1256;20397;-41
2023/07/08 04:07:38;;;;;;;;;26.00;26.00;;;;;21.10;55.52;101496.91;110163;1249;21566;-41
2023/07/08 04:10:06;;;;;;;;;26.00;23.00;;;;;21.10;55.66;101499.77;110197;1250;20174;-42
2023/07/08 04:12:33;;;;;;;;;27.00;26.00;;;;;21.08;55.85;101495.49;110159;1250;21316;-40
2023/07/08 04:15:00;;;;;;;;;26.33;25.00;;;;;21.06;55.97;101493.11;110171;1249;21173;-40
2023/07/08 04:17:28;;;;;;;;;33.33;30.00;;;;;20.97;55.72;101495.50;110219;1265;19893;-42
2023/07/08 04:19:56;;;;;;;;;25.00;24.50;;;;;20.90;55.12;101491.73;110174;1250;21058;-41
2023/07/08 04:22:24;;;;;;;;;28.00;27.00;;;;;20.95;54.57;101487.71;110238;1250;20904;-40
2023/07/08 04:24:51;;;;;;;;;26.00;24.00;;;;;21.10;54.13;101485.95;110226;1264;19066;-41
2023/07/08 04:27:19;;;;;;;;;31.50;30.50;;;;;21.17;53.92;101481.83;110203;1250;22166;-40
2023/07/08 04:29:46;;;;;;;;;34.00;31.00;;;;;21.17;53.67;101478.14;110184;1264;19966;-41
2023/07/08 04:32:13;;;;;;;;;33.00;31.00;;;;;21.12;53.44;101480.64;110173;1249;21406;-41
2023/07/08 04:34:41;;;;;;;;;34.00;31.33;;;;;21.10;53.55;101476.02;110210;1265;19237;-41
2023/07/08 04:37:08;;;;;;;;;33.50;31.00;;;;;21.14;53.29;101479.96;110194;1264;18589;-41
2023/07/08 04:39:36;;;;;;;;;36.00;33.00;;;;;21.23;52.77;101473.51;110159;1250;23107;-41
2023/07/08 04:42:03;;;;;;;;;33.00;31.00;;;;;21.21;52.80;101474.11;110194;1256;20825;-41
2023/07/08 04:44:32;;;;;;;;;36.00;32.00;;;;;21.23;52.73;101475.39;110189;1249;20033;-39
2023/07/08 04:46:59;;;;;;;;;35.00;33.00;;;;;21.24;52.60;101476.64;110197;1250;20130;-42
2023/07/08 04:49:33;;;;;;;;;30.00;29.00;;;;;21.28;52.64;101477.55;110211;1256;20686;-40
2023/07/08 04:52:01;;;;;;;;;28.00;28.00;;;;;21.29;52.46;101478.36;110182;1256;18657;-40
2023/07/08 04:54:29;;;;;;;;;28.33;27.00;;;;;21.34;52.25;101480.95;110192;1250;22390;-40
2023/07/08 04:56:56;;;;;;;;;25.00;24.00;;;;;21.26;52.15;101481.03;110209;1264;19362;-41
2023/07/08 04:59:24;;;;;;;;;30.00;28.00;;;;;21.36;52.05;101477.48;110175;1264;18601;-41
2023/07/08 05:01:52;;;;;;;;;29.50;26.50;;;;;21.42;51.89;101475.04;110198;1264;18626;-41
2023/07/08 05:04:19;;;;;;;;;30.00;25.00;;;;;21.29;52.14;101478.60;110164;1264;19541;-41
2023/07/08 05:06:47;;;;;;;;;26.50;26.50;;;;;21.34;52.08;101474.44;110241;1249;22296;-42
2023/07/08 05:09:14;;;;;;;;;27.00;26.00;;;;;21.34;52.18;101467.27;110260;1264;18883;-42
2023/07/08 05:11:41;;;;;;;;;27.00;26.00;;;;;21.34;52.04;101468.99;110215;1264;19383;-41
2023/07/08 05:14:09;;;;;;;;;30.00;27.00;;;;;21.22;52.29;101462.39;110118;1249;20055;-41
2023/07/08 05:16:36;;;;;;;;;31.50;30.50;;;;;21.30;52.07;101463.36;110216;1257;20170;-40
2023/07/08 05:19:04;;;;;;;;;38.50;35.50;;;;;21.32;52.26;101464.83;110213;1250;20986;-41
2023/07/08 05:21:33;;;;;;;;;37.00;34.50;;;;;21.28;52.27;101463.35;110183;1250;20076;-40
2023/07/08 05:24:01;;;;;;;;;30.50;28.00;;;;;21.37;52.31;101466.86;110192;1257;20192;-44
2023/07/08 05:26:28;;;;;;;;;30.50;30.00;;;;;21.59;51.98;101465.73;110201;1264;20648;-42
2023/07/08 05:28:56;;;;;;;;;27.00;26.00;;;;;21.73;51.67;101464.20;110251;1264;18591;-41
2023/07/08 05:31:23;;;;;;;;;28.33;25.00;;;;;21.81;51.63;101465.90;110211;1264;18801;-42
2023/07/08 05:33:50;;;;;;;;;25.00;23.00;;;;;21.84;51.74;101464.23;110155;1249;19340;-39
2023/07/08 05:36:18;;;;;;;;;31.00;28.00;;;;;21.90;51.47;101456.30;110190;1264;19940;-41
2023/07/08 05:38:45;;;;;;;;;28.00;27.00;;;;;21.96;51.50;101457.85;110192;1264;18720;-40
2023/07/08 05:41:13;;;;;;;;;27.00;25.00;;;;;21.92;51.21;101453.98;110216;1251;20766;-40
2023/07/08 05:43:41;;;;;;;;;30.50;28.00;;;;;21.92;51.23;101451.95;110105;1249;20439;-41
2023/07/08 05:46:08;;;;;;;;;30.00;28.00;;;;;21.86;51.25;101448.27;110243;1264;20343;-41
2023/07/08 05:48:35;;;;;;;;;29.50;28.00;;;;;21.83;51.32;101445.27;110188;1249;21801;-41
2023/07/08 05:51:03;;;;;;;;;30.00;30.00;;;;;21.85;51.20;101443.36;110230;1264;18564;-41
2023/07/08 05:53:30;;;;;;;;;32.00;30.00;;;;;21.82;50.99;101438.64;110299;1265;18750;-42
2023/07/08 05:55:58;;;;;;;;;31.00;27.50;;;;;21.82;51.15;101437.72;110223;1264;20894;-42
2023/07/08 05:58:25;;;;;;;;;28.00;27.00;;;;;21.85;51.10;101438.27;110174;1250;21586;-41
2023/07/08 06:00:53;;;;;;;;;28.00;25.00;;;;;21.91;51.15;101434.91;110215;1256;20261;-41
2023/07/08 06:03:20;;;;;;;;;28.00;25.00;;;;;22.09;50.83;101432.95;110195;1265;19529;-42
2023/07/08 06:05:49;;;;;;;;;25.50;24.50;;;;;22.19;50.68;101429.92;110198;1264;19848;-43
2023/07/08 06:08:16;;;;;;;;;28.00;27.00;;;;;22.13;50.72;101428.88;110259;1264;18743;-42
2023/07/08 06:10:44;;;;;;;;;22.50;21.50;;;;;22.24;50.27;101431.36;110230;1257;21854;-41
2023/07/08 06:13:12;;;;;;;;;25.00;22.00;;;;;22.42;50.29;101430.07;110163;1264;18592;-40
2023/07/08 06:15:39;;;;;;;;;47.00;40.00;;;;;22.57;49.76;101428.86;110234;1265;18654;-41
2023/07/08 06:18:07;;;;;;;;;70.00;52.00;;;;;22.66;50.16;101428.75;110196;1264;19711;-39
2023/07/08 06:20:34;;;;;;;;;70.00;54.50;;;;;22.79;50.00;101429.72;110105;1264;18705;-39
2023/07/08 06:23:02;;;;;;;;;64.00;50.00;;;;;22.87;50.02;101425.34;110131;1250;20334;-39
2023/07/08 06:25:30;;;;;;;;;43.00;42.00;;;;;22.94;50.08;101423.81;110241;1265;21703;-42
2023/07/08 06:27:57;;;;;;;;;37.00;33.00;;;;;23.00;50.02;101423.11;110239;1248;20043;-41
2023/07/08 06:30:25;;;;;;;;;36.00;30.00;;;;;23.04;50.17;101423.95;110206;1264;18656;-40
2023/07/08 06:32:52;;;;;;;;;29.00;26.00;;;;;23.10;50.43;101428.95;110224;1249;20787;-41
2023/07/08 06:35:19;;;;;;;;;27.50;24.00;;;;;23.15;50.32;101429.77;110117;1249;20011;-41
2023/07/08 06:37:47;;;;;;;;;23.50;20.50;;;;;23.20;50.43;101426.89;110206;1256;18728;-40
2023/07/08 06:40:14;;;;;;;;;26.00;23.50;;;;;23.30;50.32;101430.77;110209;1265;19358;-41
2023/07/08 06:42:42;;;;;;;;;23.00;22.50;;;;;23.37;50.34;101431.63;110189;1250;22312;-41
2023/07/08 06:45:09;;;;;;;;;23.00;22.00;;;;;23.38;50.64;101433.13;110243;1264;20054;-41
2023/07/08 06:47:36;;;;;;;;;63.33;48.67;;;;;23.50;50.59;101430.85;110274;1264;19344;-42
2023/07/08 06:50:04;;;;;;;;;60.00;46.00;;;;;23.61;50.34;101428.11;110230;1249;19980;-40
2023/07/08 06:52:34;;;;;;;;;63.00;51.00;;;;;23.71;49.96;101433.20;110200;1265;18779;-43
2023/07/08 06:55:02;;;;;;;;;70.00;54.00;;;;;23.74;49.73;101431.37;110168;1256;22617;-42
2023/07/08 06:57:29;;;;;;;;;64.50;52.00;;;;;23.78;49.29;101427.95;110139;1264;19657;-40
2023/07/08 06:59:58;;;;;;;;;46.00;41.00;;;;;23.84;48.58;101423.61;110170;1250;20195;-39
2023/07/08 07:02:25;;;;;;;;;40.00;32.00;;;;;23.85;48.03;101427.00;110054;1265;171090;-40
2023/07/08 07:04:52;;;;;;;;;35.00;31.00;;;;;23.86;47.90;101419.56;110202;1264;18563;-41
2023/07/08 07:07:20;;;;;;;;;30.00;28.50;;;;;23.89;47.89;101423.16;110231;1265;20076;-39
2023/07/08 07:09:47;;;;;;;;;24.00;21.50;;;;;23.90;47.85;101420.94;110179;1256;21947;-39
2023/07/08 07:12:15;;;;;;;;;28.00;26.00;;;;;23.85;48.31;101425.52;110175;1249;20199;-39
2023/07/08 07:14:42;;;;;;;;;21.00;20.00;;;;;23.81;48.64;101419.04;110215;1264;18713;-39
2023/07/08 07:17:10;;;;;;;;;23.00;20.00;;;;;23.76;48.95;101421.64;110195;1256;20625;-40
2023/07/08 07:19:38;;;;;;;;;19.00;16.00;;;;;23.73;49.09;101416.56;110199;1250;20004;-40
2023/07/08 07:22:05;;;;;;;;;18.00;17.00;;;;;23.72;49.20;101416.29;110215;1264;18694;-40
2023/07/08 07:24:32;;;;;;;;;16.50;16.00;;;;;23.72;49.18;101415.41;110164;1264;19409;-40
2023/07/08 07:27:00;;;;;;;;;19.00;14.00;;;;;23.70;49.27;101414.45;110223;1264;19995;-40
2023/07/08 07:29:27;;;;;;;;;17.00;16.00;;;;;23.69;49.22;101417.16;110191;1264;18825;-39
2023/07/08 07:31:55;;;;;;;;;16.00;14.00;;;;;23.69;49.17;101421.67;110175;1264;19358;-40
2023/07/08 07:34:23;;;;;;;;;14.00;14.00;;;;;23.68;49.03;101423.80;110202;1250;22317;-39
2023/07/08 07:36:51;;;;;;;;;12.00;11.00;;;;;23.68;49.06;101425.78;110199;1264;18910;-39
2023/07/08 07:39:18;;;;;;;;;18.00;13.00;;;;;23.72;49.18;101424.17;110238;1250;20811;-40
2023/07/08 07:41:45;;;;;;;;;12.00;12.00;;;;;23.76;49.01;101427.55;110215;1265;18936;-39
2023/07/08 07:44:13;;;;;;;;;14.00;12.00;;;;;23.78;49.14;101426.18;110198;1256;18682;-40
2023/07/08 07:46:40;;;;;;;;;10.00;10.00;;;;;23.77;49.20;101423.88;110201;1256;19305;-40
2023/07/08 07:49:08;;;;;;;;;16.00;13.00;;;;;23.77;49.32;101427.58;110204;1265;18596;-40
2023/07/08 07:51:35;;;;;;;;;9.50;9.50;;;;;23.75;49.09;101428.35;110187;1256;20101;-40
2023/07/08 07:54:02;;;;;;;;;12.00;10.00;;;;;23.77;49.07;101432.54;110187;1264;19339;-40
2023/07/08 07:56:30;;;;;;;;;10.00;10.00;;;;;23.77;49.17;101430.70;110208;1265;18652;-40
2023/07/08 07:58:58;;;;;;;;;9.00;9.00;;;;;23.77;48.97;101430.66;110181;1265;18827;-40
2023/07/08 08:01:25;;;;;;;;;9.50;9.00;;;;;23.78;48.90;101428.02;110202;1265;20762;-40
2023/07/08 08:03:52;;;;;;;;;10.00;10.00;;;;;23.78;48.77;101429.08;110178;1250;22182;-38
2023/07/08 08:06:20;;;;;;;;;12.00;10.00;;;;;23.79;48.85;101427.72;110176;1256;19224;-39
2023/07/08 08:08:49;;;;;;;;;11.00;9.00;;;;;23.80;48.68;101427.21;110180;1249;22198;-39
2023/07/08 08:11:16;;;;;;;;;9.50;9.50;;;;;23.82;48.48;101426.21;110209;1250;22204;-39
2023/07/08 08:13:43;;;;;;;;;9.00;9.00;;;;;23.81;48.41;101419.42;110219;1264;18623;-39
2023/07/08 08:16:11;;;;;;;;;9.00;8.00;;;;;23.81;48.37;101427.09;110176;1249;20599;-39
2023/07/08 08:18:38;;;;;;;;;9.00;8.67;;;;;23.82;48.23;101428.77;110188;1264;18452;-39
2023/07/08 08:21:06;;;;;;;;;8.00;8.00;;;;;23.82;48.27;101429.16;110212;1250;19890;-39
2023/07/08 08:23:33;;;;;;;;;8.50;8.50;;;;;23.83;48.24;101431.77;110185;1250;20944;-39
2023/07/08 08:26:00;;;;;;;;;8.00;8.00;;;;;23.83;48.10;101431.23;110222;1256;19527;-38
2023/07/08 08:28:28;;;;;;;;;8.00;8.00;;;;;23.84;47.84;101432.20;110229;1256;20042;-39
2023/07/08 08:30:55;;;;;;;;;9.00;8.00;;;;;23.83;47.75;101434.29;110199;1264;19350;-38
2023/07/08 08:33:23;;;;;;;;;7.00;7.00;;;;;23.85;47.84;101433.53;110219;1250;19661;-39
2023/07/08 08:35:50;;;;;;;;;6.00;6.00;;;;;23.85;47.55;101434.09;110186;1256;19969;-39
2023/07/08 08:38:18;;;;;;;;;8.00;7.00;;;;;23.85;47.60;101436.47;110228;1265;22820;-38
2023/07/08 08:40:45;;;;;;;;;6.00;6.00;;;;;23.86;47.51;101433.45;110311;1249;22656;-38
2023/07/08 08:43:13;;;;;;;;;5.00;5.00;;;;;23.87;47.51;101430.19;110273;1256;18523;-39
2023/07/08 08:45:40;;;;;;;;;6.00;6.00;;;;;23.87;47.33;101431.48;110278;1265;19825;-39
2023/07/08 08:48:08;;;;;;;;;6.00;6.00;;;;;23.87;47.35;101429.52;110184;1249;19623;-40
2023/07/08 08:50:35;;;;;;;;;5.00;5.00;;;;;23.87;47.41;101427.80;110221;1256;20229;-40
2023/07/08 08:53:02;;;;;;;;;5.33;5.33;;;;;23.87;47.31;101423.79;110270;1250;21019;-40
2023/07/08 08:55:30;;;;;;;;;6.00;6.00;;;;;23.87;47.27;101425.77;110195;1256;19836;-40
2023/07/08 08:57:57;;;;;;;;;6.00;6.00;;;;;23.87;47.28;101427.25;110221;1264;18839;-39
2023/07/08 09:00:25;;;;;;;;;5.50;5.00;;;;;23.88;47.11;101427.01;110173;1257;20625;-40
2023/07/08 09:02:52;;;;;;;;;6.00;5.00;;;;;23.90;47.13;101427.52;110196;1257;22618;-40
2023/07/08 09:05:20;;;;;;;;;5.00;5.00;;;;;23.89;47.15;101425.91;110205;1264;19970;-40
2023/07/08 09:07:47;;;;;;;;;4.00;4.00;;;;;23.88;47.05;101420.77;110194;1264;19374;-39
2023/07/08 09:10:14;;;;;;;;;6.00;6.00;;;;;23.91;46.97;101420.08;110181;1249;19653;-38
2023/07/08 09:12:42;;;;;;;;;4.33;4.33;;;;;23.89;46.94;101416.29;110203;1251;20003;-39
2023/07/08 09:15:09;;;;;;;;;5.00;5.00;;;;;23.91;47.01;101415.35;110205;1265;20458;-39
2023/07/08 09:17:37;;;;;;;;;5.00;5.00;;;;;23.90;46.95;101411.64;110191;1250;19681;-39
2023/07/08 09:20:04;;;;;;;;;4.00;4.00;;;;;23.90;46.77;101412.66;110183;1264;20137;-39
2023/07/08 09:22:31;;;;;;;;;4.33;4.33;;;;;23.92;46.76;101411.04;110218;1264;19367;-39
2023/07/08 09:24:59;;;;;;;;;5.00;4.00;;;;;23.91;46.80;101410.31;110186;1250;19606;-39
2023/07/08 09:27:26;;;;;;;;;5.00;5.00;;;;;23.92;46.74;101407.75;110162;1250;19954;-43
2023/07/08 09:29:54;;;;;;;;;3.00;3.00;;;;;23.90;46.67;101403.68;110193;1249;20646;-38
2023/07/08 09:32:21;;;;;;;;;5.00;5.00;;;;;23.91;46.67;101406.89;110165;1250;22320;-39
2023/07/08 09:34:48;;;;;;;;;6.00;6.00;;;;;23.92;46.63;101405.55;110187;1264;20003;-39
2023/07/08 09:37:16;;;;;;;;;;;;;;;23.92;46.64;101401.27;110211;1256;19476;-39
2023/07/08 09:39:43;;;;;;;;;5.00;5.00;;;;;23.93;46.62;101399.89;110225;1250;19638;-39
2023/07/08 09:42:11;;;;;;;;;4.00;4.00;;;;;23.94;46.59;101397.77;110228;1250;20002;-39
2023/07/08 09:44:38;;;;;;;;;4.00;4.00;;;;;23.95;46.39;101392.17;110260;1256;20936;-39
2023/07/08 09:47:05;;;;;;;;;4.00;4.00;;;;;23.94;46.45;101386.60;110213;1256;19562;-39
2023/07/08 09:49:33;;;;;;;;;4.00;4.00;;;;;23.94;46.49;101389.75;110229;1265;22550;-39
2023/07/08 09:52:01;;;;;;;;;4.00;2.00;;;;;23.94;46.48;101385.55;110202;1264;19373;-39
2023/07/08 09:54:30;;;;;;;;;4.00;4.00;;;;;23.96;46.46;101379.86;110200;1256;19479;-39
2023/07/08 09:56:57;;;;;;;;;4.00;4.00;;;;;23.95;46.61;101376.43;110244;1264;22717;-38
2023/07/08 09:59:25;;;;;;;;;4.00;4.00;;;;;23.95;46.48;101378.89;110258;1250;20769;-38
2023/07/08 10:01:52;;;;;;;;;4.00;4.00;;;;;23.96;46.41;101375.30;110252;1264;19579;-39
2023/07/08 10:04:20;;;;;;;;;2.00;2.00;;;;;23.96;46.42;101380.33;110203;1250;20144;-40
2023/07/08 10:06:48;;;;;;;;;4.00;4.00;;;;;23.96;46.45;101380.02;110145;1250;22615;-39
2023/07/08 10:09:18;;;;;;;;;4.00;4.00;;;;;23.97;46.40;101377.14;110087;1265;18423;-41
2023/07/08 10:11:46;;;;;;;;;3.00;3.00;;;;;23.98;46.43;101373.23;110152;1250;23485;-40
2023/07/08 10:14:13;;;;;;;;;2.00;2.00;;;;;23.97;46.36;101369.77;110113;1264;20830;-40
2023/07/08 10:16:41;;;;;;;;;;;;;;;23.97;46.51;101364.33;110235;1249;19568;-40
2023/07/08 10:19:08;;;;;;;;;2.00;2.00;;;;;23.98;46.40;101367.17;110254;1250;19635;-38
2023/07/08 10:21:36;;;;;;;;;2.00;2.00;;;;;23.98;46.36;101368.73;110220;1264;19336;-40
2023/07/08 10:24:03;;;;;;;;;2.00;2.00;;;;;23.99;46.45;101375.48;110200;1250;19561;-39
2023/07/08 10:26:31;;;;;;;;;2.00;2.00;;;;;23.99;46.33;101375.02;110192;1250;18662;-39
2023/07/08 10:28:58;;;;;;;;;2.00;2.00;;;;;23.99;46.33;101377.60;110159;1256;21020;-39
2023/07/08 10:31:26;;;;;;;;;2.00;2.00;;;;;24.01;46.49;101371.41;110202;1256;18305;-39
2023/07/08 10:33:53;;;;;;;;;2.00;2.00;;;;;24.01;46.30;101364.99;110205;1264;22209;-39
2023/07/08 10:36:21;;;;;;;;;2.00;2.00;;;;;24.00;46.46;101363.11;110221;1250;20778;-39
2023/07/08 10:38:48;;;;;;;;;4.00;4.00;;;;;24.01;46.20;101365.36;110213;1250;19646;-40
2023/07/08 10:41:16;;;;;;;;;4.00;2.00;;;;;24.02;46.17;101361.84;110198;1250;20338;-39
2023/07/08 10:43:43;;;;;;;;;4.00;3.33;;;;;24.02;46.17;101355.65;110182;1250;20689;-39
2023/07/08 10:46:11;;;;;;;;;4.00;2.67;;;;;24.01;46.13;101354.66;110104;1250;19674;-39
2023/07/08 10:48:38;;;;;;;;;4.00;4.00;;;;;24.01;46.32;101354.20;110116;1256;22358;-38
2023/07/08 10:51:06;;;;;;;;;2.00;2.00;;;;;24.02;46.04;101355.44;110107;1264;20899;-38
2023/07/08 10:53:33;;;;;;;;;4.00;4.00;;;;;24.01;46.20;101347.09;110189;1249;22666;-40
2023/07/08 10:56:00;;;;;;;;;2.00;2.00;;;;;24.02;46.09;101348.25;110199;1249;20107;-39
2023/07/08 10:58:28;;;;;;;;;5.00;4.00;;;;;24.02;46.14;101339.66;110148;1250;19656;-38
2023/07/08 11:00:55;;;;;;;;;4.50;4.50;;;;;24.03;45.97;101336.88;110127;1257;19550;-39
2023/07/08 11:03:23;;;;;;;;;4.00;4.00;;;;;24.05;46.31;101342.27;110168;1256;22765;-39
2023/07/08 11:05:50;;;;;;;;;4.00;4.00;;;;;24.08;46.80;101334.60;110189;1257;20769;-39
2023/07/08 11:08:18;;;;;;;;;2.00;2.00;;;;;24.11;47.17;101335.38;110250;1250;20895;-38